Time;durP1;ratioP1;P1;durP2;ratioP2;P2;SDS_P1;SDS_P2;PMS_P1;PMS_P2;Temp;Humidity;BMP_temperature;BMP_pressure;BME280_temperature;BME280_humidity;BME280_pressure;Samples;Min_cycle;Max_cycle;Signal;HPM_P1;HPM_P2
2022/03/14 00:00:44;;;;;;;;;9.25;8.00;;;;;;;;4994287;28;50988;-57
2022/03/14 00:03:33;;;;;;;;;9.75;7.25;;;;;;;;5000618;28;51351;-56
2022/03/14 00:06:18;;;;;;;;;7.50;6.25;;;;;;;;5000856;28;51423;-57
2022/03/14 00:09:07;;;;;;;;;4.75;4.00;;;;;;;;5000675;28;51154;-57
2022/03/14 00:11:56;;;;;;;;;8.00;5.00;;;;;;;;5001168;28;51104;-57
2022/03/14 00:14:40;;;;;;;;;8.25;6.25;;;;;;;;5000453;28;51187;-57
2022/03/14 00:17:26;;;;;;;;;10.75;5.00;;;;;;;;5000480;28;51107;-57
2022/03/14 00:20:11;;;;;;;;;9.50;6.50;;;;;;;;5000821;28;51107;-57
2022/03/14 00:22:57;;;;;;;;;7.00;6.50;;;;;;;;5000401;28;51080;-57
2022/03/14 00:25:41;;;;;;;;;9.00;6.00;;;;;;;;4999764;28;51150;-57
2022/03/14 00:28:26;;;;;;;;;13.25;6.25;;;;;;;;5000536;28;51135;-55
2022/03/14 00:31:10;;;;;;;;;9.00;6.00;;;;;;;;5000542;28;51416;-57
2022/03/14 00:33:54;;;;;;;;;10.00;8.00;;;;;;;;5000292;28;51382;-57
2022/03/14 00:36:41;;;;;;;;;4.00;4.00;;;;;;;;5000434;28;51012;-57
2022/03/14 00:39:25;;;;;;;;;9.75;7.50;;;;;;;;5000241;28;51027;-57
2022/03/14 00:42:10;;;;;;;;;16.75;7.00;;;;;;;;5000341;28;51107;-57
2022/03/14 00:44:54;;;;;;;;;11.75;6.00;;;;;;;;4999821;28;51444;-58
2022/03/14 00:47:38;;;;;;;;;12.50;8.00;;;;;;;;4999383;28;51143;-57
2022/03/14 00:50:23;;;;;;;;;13.00;8.50;;;;;;;;4994392;28;51516;-57
2022/03/14 00:53:08;;;;;;;;;5.25;5.00;;;;;;;;5000296;28;50997;-57
2022/03/14 00:55:52;;;;;;;;;9.00;7.75;;;;;;;;4997983;28;51485;-57
2022/03/14 00:58:37;;;;;;;;;10.00;5.75;;;;;;;;4999617;28;51170;-57
2022/03/14 01:01:21;;;;;;;;;5.25;3.00;;;;;;;;5000062;28;51084;-57
2022/03/14 01:04:06;;;;;;;;;7.25;5.00;;;;;;;;4999348;28;51346;-57
2022/03/14 01:06:50;;;;;;;;;7.75;6.75;;;;;;;;4999362;28;51117;-57
2022/03/14 01:09:35;;;;;;;;;9.00;7.00;;;;;;;;4995337;28;51112;-58
2022/03/14 01:12:19;;;;;;;;;7.75;7.25;;;;;;;;4999392;28;51158;-58
2022/03/14 01:15:04;;;;;;;;;6.00;5.50;;;;;;;;4999319;28;51085;-57
2022/03/14 01:17:48;;;;;;;;;10.00;6.00;;;;;;;;4999112;28;51249;-56
2022/03/14 01:20:33;;;;;;;;;10.25;7.00;;;;;;;;4994151;28;51350;-58
2022/03/14 01:23:18;;;;;;;;;14.00;10.00;;;;;;;;4999080;28;51171;-57
2022/03/14 01:26:02;;;;;;;;;7.50;6.25;;;;;;;;4999485;28;51088;-57
2022/03/14 01:28:48;;;;;;;;;10.75;7.00;;;;;;;;4999198;28;51055;-57
2022/03/14 01:31:32;;;;;;;;;12.00;7.00;;;;;;;;4999637;28;51238;-57
2022/03/14 01:34:17;;;;;;;;;8.75;5.00;;;;;;;;4998915;28;51441;-57
2022/03/14 01:37:02;;;;;;;;;7.50;6.00;;;;;;;;4999317;28;51159;-57
2022/03/14 01:39:47;;;;;;;;;9.50;6.75;;;;;;;;4998752;28;51468;-57
2022/03/14 01:42:31;;;;;;;;;9.00;7.00;;;;;;;;4999355;28;51089;-57
2022/03/14 01:45:17;;;;;;;;;9.75;6.75;;;;;;;;4998100;28;51064;-57
2022/03/14 01:48:02;;;;;;;;;10.50;5.75;;;;;;;;4999255;28;51044;-57
2022/03/14 01:50:46;;;;;;;;;9.00;4.75;;;;;;;;4993852;28;51175;-57
2022/03/14 01:53:31;;;;;;;;;9.00;6.75;;;;;;;;4998752;28;51348;-56
2022/03/14 01:56:15;;;;;;;;;9.75;9.00;;;;;;;;4998664;28;51072;-57
2022/03/14 01:59:00;;;;;;;;;12.00;7.00;;;;;;;;4999026;28;51475;-57
2022/03/14 02:01:45;;;;;;;;;9.50;7.50;;;;;;;;4999290;28;51036;-57
2022/03/14 02:04:29;;;;;;;;;12.50;9.00;;;;;;;;4998878;28;51059;-58
2022/03/14 02:07:16;;;;;;;;;18.00;10.75;;;;;;;;4998867;28;51131;-57
2022/03/14 02:10:01;;;;;;;;;10.00;8.50;;;;;;;;4999126;28;51410;-57
2022/03/14 02:12:45;;;;;;;;;13.00;10.00;;;;;;;;4999098;28;51127;-57
2022/03/14 02:15:29;;;;;;;;;14.00;11.50;;;;;;;;4998857;28;51001;-57
2022/03/14 02:18:13;;;;;;;;;12.50;11.00;;;;;;;;4998899;28;51368;-57
2022/03/14 02:20:58;;;;;;;;;12.50;11.50;;;;;;;;4998907;28;51034;-57
2022/03/14 02:23:44;;;;;;;;;18.75;15.25;;;;;;;;4998678;28;51353;-57
2022/03/14 02:26:28;;;;;;;;;18.75;14.00;;;;;;;;4998528;28;51039;-57
2022/03/14 02:29:13;;;;;;;;;20.00;16.00;;;;;;;;4998762;28;51065;-57
2022/03/14 02:31:58;;;;;;;;;14.00;11.50;;;;;;;;4998580;28;51981;-57
2022/03/14 02:34:42;;;;;;;;;17.25;12.00;;;;;;;;4997855;28;51287;-57
2022/03/14 02:37:26;;;;;;;;;15.50;12.50;;;;;;;;4996558;28;51045;-57
2022/03/14 02:40:11;;;;;;;;;11.75;10.75;;;;;;;;4998671;28;51171;-57
2022/03/14 02:42:56;;;;;;;;;11.75;10.50;;;;;;;;4998368;28;51348;-56
2022/03/14 02:45:41;;;;;;;;;14.50;11.00;;;;;;;;4998447;28;51239;-57
2022/03/14 02:48:26;;;;;;;;;14.50;12.75;;;;;;;;4998579;28;51427;-57
2022/03/14 02:51:10;;;;;;;;;14.25;11.25;;;;;;;;4998352;28;51155;-55
2022/03/14 02:53:56;;;;;;;;;15.00;11.00;;;;;;;;4997563;28;51431;-57
2022/03/14 02:56:40;;;;;;;;;10.50;9.50;;;;;;;;4998040;28;51157;-55
2022/03/14 02:59:26;;;;;;;;;13.50;13.00;;;;;;;;4998663;28;51098;-57
2022/03/14 03:02:10;;;;;;;;;11.50;11.25;;;;;;;;4998124;28;51184;-57
2022/03/14 03:04:55;;;;;;;;;11.00;10.00;;;;;;;;4998122;28;51102;-57
2022/03/14 03:07:39;;;;;;;;;10.50;9.75;;;;;;;;4998407;28;51424;-57
2022/03/14 03:10:23;;;;;;;;;12.00;12.00;;;;;;;;5000709;28;51231;-57
2022/03/14 03:13:11;;;;;;;;;15.25;14.00;;;;;;;;5002649;28;51147;-57
2022/03/14 03:15:55;;;;;;;;;13.50;12.75;;;;;;;;5001609;28;51126;-57
2022/03/14 03:18:40;;;;;;;;;15.25;13.00;;;;;;;;5001237;28;51163;-57
2022/03/14 03:21:24;;;;;;;;;14.50;13.25;;;;;;;;5001919;28;51163;-57
2022/03/14 03:24:09;;;;;;;;;21.50;17.50;;;;;;;;5000826;28;51058;-57
2022/03/14 03:26:53;;;;;;;;;17.00;14.25;;;;;;;;4998809;28;51264;-57
2022/03/14 03:29:38;;;;;;;;;17.50;15.25;;;;;;;;5001994;28;51179;-57
2022/03/14 03:32:22;;;;;;;;;13.75;12.00;;;;;;;;4994263;28;51877;-57
2022/03/14 03:35:06;;;;;;;;;16.50;14.00;;;;;;;;5001260;28;51267;-57
2022/03/14 03:37:51;;;;;;;;;24.25;14.75;;;;;;;;4998382;28;51117;-57
2022/03/14 03:40:35;;;;;;;;;20.75;16.50;;;;;;;;5001991;28;51186;-57
2022/03/14 03:43:20;;;;;;;;;16.00;14.50;;;;;;;;5000879;28;51215;-57
2022/03/14 03:46:04;;;;;;;;;16.00;14.67;;;;;;;;5001178;28;51193;-56
2022/03/14 03:48:48;;;;;;;;;18.00;11.75;;;;;;;;4997136;28;51408;-57
2022/03/14 03:51:33;;;;;;;;;15.00;14.25;;;;;;;;5000991;28;51074;-57
2022/03/14 03:54:17;;;;;;;;;14.75;14.25;;;;;;;;5001005;28;51046;-57
2022/03/14 03:57:02;;;;;;;;;18.50;16.25;;;;;;;;5000204;28;51191;-57
2022/03/14 03:59:46;;;;;;;;;15.75;13.00;;;;;;;;5001129;28;51208;-57
2022/03/14 04:02:36;;;;;;;;;18.75;15.25;;;;;;;;5000934;28;51199;-57
2022/03/14 04:05:21;;;;;;;;;17.25;14.75;;;;;;;;5000706;28;50969;-57
2022/03/14 04:08:08;;;;;;;;;22.00;15.25;;;;;;;;5000240;28;51480;-56
2022/03/14 04:10:54;;;;;;;;;22.75;15.50;;;;;;;;5000711;28;51146;-57
2022/03/14 04:13:38;;;;;;;;;25.75;17.75;;;;;;;;5001028;28;51082;-56
2022/03/14 04:16:24;;;;;;;;;16.50;13.75;;;;;;;;5000280;28;51223;-57
2022/03/14 04:19:09;;;;;;;;;20.50;18.50;;;;;;;;4999823;28;51170;-56
2022/03/14 04:21:53;;;;;;;;;19.00;15.00;;;;;;;;5000203;28;51156;-57
2022/03/14 04:24:38;;;;;;;;;23.50;18.50;;;;;;;;4992917;28;51125;-57
2022/03/14 04:27:22;;;;;;;;;22.25;16.50;;;;;;;;5006055;28;51146;-57
2022/03/14 04:30:07;;;;;;;;;20.50;16.25;;;;;;;;5000502;28;51152;-58
2022/03/14 04:32:52;;;;;;;;;20.75;18.50;;;;;;;;4997107;28;51710;-57
2022/03/14 04:35:37;;;;;;;;;20.75;17.50;;;;;;;;4998815;28;51146;-57
2022/03/14 04:38:21;;;;;;;;;20.75;15.75;;;;;;;;4997193;28;51373;-57
2022/03/14 04:41:05;;;;;;;;;20.25;16.00;;;;;;;;4994147;28;51017;-57
2022/03/14 04:43:50;;;;;;;;;17.75;16.25;;;;;;;;5003033;28;51196;-57
2022/03/14 04:46:35;;;;;;;;;20.50;17.25;;;;;;;;5005356;28;51370;-57
2022/03/14 04:49:19;;;;;;;;;23.00;17.00;;;;;;;;5006245;28;51189;-57
2022/03/14 04:52:04;;;;;;;;;23.00;19.50;;;;;;;;5011732;28;51113;-57
2022/03/14 04:54:48;;;;;;;;;21.50;16.25;;;;;;;;5004805;28;51220;-57
2022/03/14 04:57:33;;;;;;;;;20.75;20.75;;;;;;;;4998918;28;51674;-56
2022/03/14 05:00:17;;;;;;;;;20.50;19.50;;;;;;;;4999800;28;51182;-46
2022/03/14 05:03:02;;;;;;;;;20.75;18.25;;;;;;;;4999006;28;51735;-45
2022/03/14 05:05:46;;;;;;;;;21.00;18.75;;;;;;;;4998996;28;51520;-44
2022/03/14 05:08:31;;;;;;;;;20.25;17.75;;;;;;;;4999172;28;51145;-45
2022/03/14 05:11:16;;;;;;;;;19.75;16.75;;;;;;;;4999643;28;51074;-44
2022/03/14 05:14:00;;;;;;;;;17.25;14.50;;;;;;;;4999801;28;51054;-45
2022/03/14 05:16:47;;;;;;;;;20.00;16.00;;;;;;;;4999045;28;51080;-44
2022/03/14 05:19:31;;;;;;;;;18.75;17.00;;;;;;;;4999770;28;51077;-42
2022/03/14 05:22:16;;;;;;;;;19.50;17.50;;;;;;;;4999501;28;51104;-44
2022/03/14 05:25:00;;;;;;;;;19.75;18.00;;;;;;;;4999704;28;51160;-44
2022/03/14 05:27:44;;;;;;;;;21.50;16.50;;;;;;;;4996428;28;51350;-42
2022/03/14 05:30:29;;;;;;;;;28.75;24.00;;;;;;;;4998512;28;51170;-44
2022/03/14 05:33:13;;;;;;;;;24.50;20.50;;;;;;;;4999736;28;51165;-44
2022/03/14 05:35:58;;;;;;;;;22.75;20.25;;;;;;;;4998836;28;51026;-44
2022/03/14 05:38:44;;;;;;;;;24.25;20.00;;;;;;;;4999856;28;51077;-44
2022/03/14 05:41:28;;;;;;;;;24.25;19.25;;;;;;;;4999059;28;51289;-43
2022/03/14 05:44:12;;;;;;;;;27.50;22.25;;;;;;;;4999939;28;51195;-44
2022/03/14 05:46:57;;;;;;;;;30.25;20.50;;;;;;;;4999058;28;51139;-43
2022/03/14 05:49:41;;;;;;;;;26.00;22.00;;;;;;;;4999097;28;51097;-44
2022/03/14 05:52:25;;;;;;;;;24.25;22.25;;;;;;;;4998572;28;51584;-44
2022/03/14 05:55:10;;;;;;;;;29.00;23.50;;;;;;;;4998933;28;51372;-45
2022/03/14 05:57:54;;;;;;;;;26.75;23.75;;;;;;;;4999736;28;51136;-45
2022/03/14 06:00:39;;;;;;;;;29.50;26.00;;;;;;;;4998206;28;51398;-43
2022/03/14 06:03:24;;;;;;;;;28.25;25.25;;;;;;;;4998767;28;51023;-45
2022/03/14 06:06:08;;;;;;;;;43.75;29.00;;;;;;;;4998109;28;51386;-46
2022/03/14 06:08:52;;;;;;;;;30.50;22.00;;;;;;;;4996409;28;51142;-44
2022/03/14 06:11:38;;;;;;;;;31.25;25.75;;;;;;;;4994325;28;51156;-44
2022/03/14 06:14:22;;;;;;;;;39.25;27.75;;;;;;;;4998821;28;51052;-42
2022/03/14 06:17:07;;;;;;;;;32.25;28.25;;;;;;;;4999427;28;51204;-45
2022/03/14 06:19:52;;;;;;;;;31.00;27.25;;;;;;;;4999234;28;51049;-47
2022/03/14 06:22:42;;;;;;;;;26.00;21.50;;;;;;;;4991438;28;51027;-47
2022/03/14 06:25:26;;;;;;;;;27.75;25.25;;;;;;;;4998773;28;52052;-44
2022/03/14 06:28:11;;;;;;;;;32.00;26.50;;;;;;;;4999373;28;51039;-44
2022/03/14 06:30:55;;;;;;;;;26.25;24.25;;;;;;;;4999157;28;51152;-44
2022/03/14 06:33:40;;;;;;;;;30.25;26.75;;;;;;;;4999035;28;51137;-47
2022/03/14 06:36:25;;;;;;;;;27.50;26.00;;;;;;;;4998091;28;51073;-45
2022/03/14 06:39:10;;;;;;;;;34.25;26.75;;;;;;;;4999351;28;51082;-44
2022/03/14 06:41:54;;;;;;;;;33.50;28.00;;;;;;;;4999306;28;51461;-45
2022/03/14 06:44:39;;;;;;;;;29.50;27.25;;;;;;;;5000523;28;51160;-41
2022/03/14 06:47:24;;;;;;;;;30.75;25.75;;;;;;;;5003013;28;51069;-43
2022/03/14 06:50:10;;;;;;;;;30.50;28.75;;;;;;;;4998410;28;51342;-47
2022/03/14 06:52:54;;;;;;;;;29.00;24.50;;;;;;;;5002724;28;52243;-42
2022/03/14 06:55:38;;;;;;;;;36.50;29.00;;;;;;;;5002419;28;51243;-47
2022/03/14 06:58:23;;;;;;;;;30.50;26.75;;;;;;;;5002416;28;51083;-48
2022/03/14 07:01:07;;;;;;;;;37.00;29.25;;;;;;;;5002550;28;51165;-46
2022/03/14 07:03:51;;;;;;;;;33.25;30.00;;;;;;;;5002206;28;52022;-46
2022/03/14 07:06:36;;;;;;;;;35.75;28.75;;;;;;;;5002013;28;51559;-47
2022/03/14 07:09:21;;;;;;;;;35.75;30.50;;;;;;;;5002424;28;51111;-47
2022/03/14 07:12:05;;;;;;;;;37.50;29.25;;;;;;;;5002043;28;51001;-45
2022/03/14 07:14:49;;;;;;;;;34.50;27.75;;;;;;;;5004728;28;51191;-44
2022/03/14 07:17:33;;;;;;;;;37.25;31.25;;;;;;;;5002245;28;51513;-50
2022/03/14 07:20:19;;;;;;;;;33.00;29.00;;;;;;;;5001828;28;51065;-51
2022/03/14 07:23:05;;;;;;;;;34.75;30.00;;;;;;;;5001789;28;51109;-49
2022/03/14 07:25:50;;;;;;;;;31.25;26.00;;;;;;;;5012547;28;51445;-45
2022/03/14 07:28:35;;;;;;;;;32.75;26.25;;;;;;;;5002022;28;51187;-47
2022/03/14 07:31:20;;;;;;;;;37.50;29.75;;;;;;;;5001890;28;51669;-45
2022/03/14 07:34:04;;;;;;;;;29.50;27.75;;;;;;;;5001660;28;51177;-47
2022/03/14 07:36:49;;;;;;;;;37.00;30.25;;;;;;;;5002335;28;50998;-46
2022/03/14 07:39:34;;;;;;;;;49.25;35.25;;;;;;;;5000774;28;51637;-50
2022/03/14 07:42:18;;;;;;;;;42.25;32.25;;;;;;;;5001114;28;51883;-48
2022/03/14 07:45:03;;;;;;;;;45.50;33.25;;;;;;;;4998835;28;52407;-46
2022/03/14 07:47:47;;;;;;;;;46.75;37.00;;;;;;;;5001283;28;51009;-46
2022/03/14 07:50:31;;;;;;;;;41.25;33.00;;;;;;;;5001432;28;51537;-45
2022/03/14 07:53:16;;;;;;;;;43.75;34.25;;;;;;;;5006820;28;51298;-46
2022/03/14 07:56:00;;;;;;;;;43.00;32.75;;;;;;;;5002721;28;51206;-50
2022/03/14 07:58:44;;;;;;;;;49.00;37.25;;;;;;;;5001020;28;51218;-45
2022/03/14 08:01:29;;;;;;;;;61.00;47.75;;;;;;;;5001275;28;51650;-48
2022/03/14 08:04:13;;;;;;;;;325.00;274.25;;;;;;;;5001306;28;51899;-46
2022/03/14 08:06:58;;;;;;;;;173.00;151.75;;;;;;;;5008008;28;51160;-46
2022/03/14 08:09:42;;;;;;;;;64.25;50.75;;;;;;;;5011905;28;51134;-49
2022/03/14 08:12:26;;;;;;;;;49.50;38.00;;;;;;;;5007655;28;51598;-47
2022/03/14 08:15:11;;;;;;;;;47.00;37.25;;;;;;;;4998966;28;51414;-48
2022/03/14 08:17:56;;;;;;;;;49.25;36.75;;;;;;;;4999747;28;51056;-44
2022/03/14 08:20:41;;;;;;;;;48.00;39.25;;;;;;;;5004372;28;51189;-44
2022/03/14 08:23:25;;;;;;;;;43.75;34.00;;;;;;;;5000235;28;51092;-43
2022/03/14 08:26:10;;;;;;;;;45.50;34.25;;;;;;;;5001115;28;50993;-48
2022/03/14 08:28:54;;;;;;;;;43.50;32.50;;;;;;;;4999816;28;51556;-49
2022/03/14 08:31:39;;;;;;;;;45.75;34.25;;;;;;;;5000248;28;51063;-43
2022/03/14 08:34:24;;;;;;;;;41.75;32.50;;;;;;;;4998632;28;51211;-48
2022/03/14 08:37:08;;;;;;;;;45.50;33.50;;;;;;;;4999527;28;51157;-47
2022/03/14 08:39:52;;;;;;;;;45.25;34.50;;;;;;;;4999459;28;51439;-42
2022/03/14 08:42:38;;;;;;;;;45.00;32.00;;;;;;;;5002120;28;51144;-48
2022/03/14 08:45:23;;;;;;;;;42.75;35.00;;;;;;;;5000888;28;51124;-46
2022/03/14 08:48:07;;;;;;;;;38.75;32.00;;;;;;;;5000136;28;51165;-48
2022/03/14 08:50:52;;;;;;;;;39.50;31.50;;;;;;;;5000128;28;51205;-46
2022/03/14 08:53:36;;;;;;;;;30.50;27.75;;;;;;;;4998608;28;51084;-50
2022/03/14 08:56:23;;;;;;;;;40.00;32.00;;;;;;;;4998405;28;51668;-46
2022/03/14 09:02:01;;;;;;;;;44.25;32.75;;;;;;;;2712908;22;51653;-41
2022/03/14 09:04:45;;;;;;;;;34.25;29.75;;;;;;;;4976149;28;51085;-41
2022/03/14 09:07:31;;;;;;;;;38.50;30.25;;;;;;;;4978934;28;51054;-43
2022/03/14 09:10:16;;;;;;;;;32.00;28.25;;;;;;;;4972563;28;51504;-42
2022/03/14 09:13:00;;;;;;;;;42.25;30.75;;;;;;;;4978249;28;53397;-44
2022/03/14 09:15:47;;;;;;;;;27.00;25.25;;;;;;;;4974099;28;51073;-39
2022/03/14 09:18:33;;;;;;;;;34.25;27.50;;;;;;;;4975912;28;51507;-43
2022/03/14 09:21:17;;;;;;;;;37.25;29.75;;;;;;;;4975965;28;51566;-37
2022/03/14 09:24:02;;;;;;;;;48.00;38.00;;;;;;;;4977640;28;51030;-41
2022/03/14 09:26:46;;;;;;;;;44.00;33.50;;;;;;;;4979439;28;51054;-38
2022/03/14 09:29:31;;;;;;;;;39.25;32.25;;;;;;;;4977341;28;51150;-43
2022/03/14 09:32:16;;;;;;;;;28.75;26.50;;;;;;;;4978524;28;51140;-38
2022/03/14 09:35:00;;;;;;;;;27.50;22.00;;;;;;;;4977342;28;51613;-39
2022/03/14 09:37:45;;;;;;;;;36.50;32.00;;;;;;;;4978619;28;51026;-40
2022/03/14 10:11:17;;;;;;;;;34.50;26.25;;;;;;;;4311169;32;51260;-43
2022/03/14 10:14:04;;;;;;;;;30.75;27.00;;;;;;;;5072144;27;51155;-45
2022/03/14 10:16:48;;;;;;;;;22.75;21.75;;;;;;;;5060544;28;51447;-44
2022/03/14 10:19:36;;;;;;;;;28.25;21.00;;;;;;;;5068121;28;51263;-44
2022/03/14 10:22:20;;;;;;;;;19.00;15.25;;;;;;;;5064480;28;51435;-46
2022/03/14 10:25:09;;;;;;;;;18.50;16.75;;;;;;;;5072498;28;51499;-46
2022/03/14 10:27:57;;;;;;;;;28.00;20.75;;;;;;;;5065304;28;51384;-48
2022/03/14 10:30:49;;;;;;;;;17.00;16.00;;;;;;;;5063936;28;51117;-51
2022/03/14 10:33:33;;;;;;;;;19.00;16.25;;;;;;;;5058976;28;51529;-47
2022/03/14 10:36:36;;;;;;;;;18.25;15.25;;;;;;;;5058482;28;51089;-49
2022/03/14 10:39:22;;;;;;;;;24.50;16.50;;;;;;;;5067698;28;51133;-44
2022/03/14 10:42:12;;;;;;;;;18.00;16.00;;;;;;;;5072239;28;51410;-50
2022/03/14 10:44:56;;;;;;;;;20.00;17.00;;;;;;;;5063025;28;50991;-53
2022/03/14 10:47:47;;;;;;;;;21.00;17.00;;;;;;;;5058288;28;51501;-50
2022/03/14 10:50:32;;;;;;;;;21.00;18.00;;;;;;;;5064468;28;51093;-46
2022/03/14 10:53:16;;;;;;;;;14.50;13.00;;;;;;;;5057681;28;51513;-48
2022/03/14 10:56:01;;;;;;;;;22.75;17.25;;;;;;;;5078322;27;51538;-49
2022/03/14 10:58:46;;;;;;;;;22.50;15.50;;;;;;;;5059196;28;51574;-46
2022/03/14 11:01:31;;;;;;;;;16.50;13.00;;;;;;;;5058237;28;51144;-47
2022/03/14 11:04:16;;;;;;;;;16.00;14.00;;;;;;;;5055245;28;51158;-49
2022/03/14 11:07:00;;;;;;;;;16.75;14.25;;;;;;;;5054817;28;51050;-50
2022/03/14 11:09:49;;;;;;;;;18.75;14.25;;;;;;;;5070910;28;51141;-49
2022/03/14 11:12:33;;;;;;;;;15.75;13.50;;;;;;;;5061347;28;51437;-46
2022/03/14 11:15:18;;;;;;;;;13.25;13.00;;;;;;;;5059550;27;52065;-47
2022/03/14 11:18:03;;;;;;;;;12.25;11.25;;;;;;;;5046892;28;51096;-47
2022/03/14 11:20:47;;;;;;;;;21.00;16.25;;;;;;;;5070418;27;51174;-49
2022/03/14 11:23:32;;;;;;;;;16.75;11.25;;;;;;;;5047627;28;51539;-51
2022/03/14 11:26:17;;;;;;;;;17.50;13.25;;;;;;;;5044299;28;51232;-49
2022/03/14 11:29:02;;;;;;;;;19.00;16.75;;;;;;;;5048505;28;51138;-45
2022/03/14 11:31:48;;;;;;;;;20.75;15.00;;;;;;;;5040179;28;51788;-50
2022/03/14 11:34:33;;;;;;;;;13.50;10.75;;;;;;;;5041202;28;51419;-50
2022/03/14 11:37:18;;;;;;;;;18.25;12.00;;;;;;;;5040606;28;52304;-49
2022/03/14 11:40:04;;;;;;;;;14.25;13.00;;;;;;;;5057256;28;51143;-49
2022/03/14 11:42:49;;;;;;;;;15.00;12.50;;;;;;;;5055010;28;51289;-47
2022/03/14 11:45:34;;;;;;;;;15.25;12.25;;;;;;;;5044404;28;51201;-50
2022/03/14 11:48:18;;;;;;;;;10.75;9.00;;;;;;;;5044830;28;51058;-48
2022/03/14 11:51:03;;;;;;;;;16.75;10.75;;;;;;;;5047955;28;51196;-48
2022/03/14 11:53:49;;;;;;;;;12.75;8.75;;;;;;;;5053591;28;51154;-50
2022/03/14 11:56:38;;;;;;;;;12.25;10.25;;;;;;;;5049915;28;51959;-47
2022/03/14 11:59:27;;;;;;;;;16.75;10.00;;;;;;;;5044203;28;51124;-51
2022/03/14 12:02:11;;;;;;;;;16.75;11.75;;;;;;;;5059161;28;51523;-47
2022/03/14 12:05:00;;;;;;;;;12.00;9.00;;;;;;;;5056044;28;51147;-49
2022/03/14 12:07:45;;;;;;;;;9.50;8.00;;;;;;;;5046389;28;51188;-46
2022/03/14 12:10:30;;;;;;;;;9.75;8.50;;;;;;;;5039243;28;51201;-49
2022/03/14 12:13:34;;;;;;;;;15.25;10.25;;;;;;;;5052807;28;51526;-47
2022/03/14 12:16:37;;;;;;;;;11.00;9.50;;;;;;;;5047751;28;51239;-46
2022/03/14 12:19:26;;;;;;;;;13.25;11.00;;;;;;;;5059820;28;51135;-45
2022/03/14 12:22:13;;;;;;;;;10.25;7.75;;;;;;;;5039698;28;51184;-48
2022/03/14 12:24:57;;;;;;;;;15.00;12.25;;;;;;;;5052600;28;51559;-47
2022/03/14 12:27:42;;;;;;;;;0.00;0.00;;;;;;;;5054257;28;51431;-50
2022/03/14 12:30:31;;;;;;;;;12.50;10.50;;;;;;;;5040997;28;51340;-48
2022/03/14 12:33:32;;;;;;;;;10.50;9.50;;;;;;;;5049108;28;51176;-46
2022/03/14 12:36:16;;;;;;;;;13.75;9.25;;;;;;;;5053932;28;51162;-47
2022/03/14 12:39:09;;;;;;;;;16.50;11.25;;;;;;;;5051456;28;51483;-49
2022/03/14 12:42:13;;;;;;;;;17.75;11.25;;;;;;;;5050130;28;51455;-50
2022/03/14 12:45:15;;;;;;;;;15.00;13.25;;;;;;;;5050349;28;51159;-49
2022/03/14 12:48:12;;;;;;;;;14.00;12.25;;;;;;;;5041888;28;51144;-46
2022/03/14 12:51:03;;;;;;;;;13.75;11.75;;;;;;;;5045077;28;51232;-47
2022/03/14 12:53:50;;;;;;;;;15.00;11.75;;;;;;;;5054788;28;51437;-47
2022/03/14 12:56:37;;;;;;;;;17.75;12.00;;;;;;;;5051784;28;51073;-51
2022/03/14 12:59:27;;;;;;;;;16.50;12.25;;;;;;;;5054267;28;51466;-50
2022/03/14 13:02:25;;;;;;;;;11.00;9.00;;;;;;;;5053711;28;51355;-50
2022/03/14 13:05:10;;;;;;;;;17.50;9.75;;;;;;;;5068501;27;51122;-47
2022/03/14 13:08:04;;;;;;;;;14.50;9.50;;;;;;;;5047956;28;51145;-50
2022/03/14 13:10:50;;;;;;;;;12.00;10.75;;;;;;;;5049136;28;51118;-47
2022/03/14 13:13:38;;;;;;;;;15.00;12.25;;;;;;;;5048522;28;51083;-46
2022/03/14 13:16:27;;;;;;;;;9.75;9.75;;;;;;;;5038851;28;51141;-47
2022/03/14 13:19:16;;;;;;;;;14.50;10.75;;;;;;;;5038847;28;51511;-48
2022/03/14 13:22:10;;;;;;;;;18.25;10.50;;;;;;;;5044050;28;51180;-51
2022/03/14 13:24:55;;;;;;;;;13.50;11.50;;;;;;;;5059116;28;51161;-50
2022/03/14 13:27:40;;;;;;;;;13.00;10.50;;;;;;;;5045304;28;51063;-48
2022/03/14 13:30:25;;;;;;;;;11.25;7.75;;;;;;;;5045734;28;51039;-45
2022/03/14 13:33:23;;;;;;;;;15.00;9.00;;;;;;;;5041364;28;51145;-48
2022/03/14 13:36:12;;;;;;;;;14.50;9.75;;;;;;;;5049790;28;51149;-45
2022/03/14 13:38:56;;;;;;;;;12.00;11.25;;;;;;;;5057457;28;51358;-51
2022/03/14 13:41:43;;;;;;;;;12.75;9.75;;;;;;;;5052011;28;51335;-48
2022/03/14 13:44:27;;;;;;;;;15.75;10.00;;;;;;;;5044496;28;51217;-48
2022/03/14 13:47:12;;;;;;;;;15.50;12.00;;;;;;;;5043172;28;51332;-48
2022/03/14 13:50:01;;;;;;;;;11.75;11.75;;;;;;;;5048892;28;51389;-47
2022/03/14 13:52:54;;;;;;;;;17.25;13.25;;;;;;;;5039924;28;52244;-44
2022/03/14 13:55:38;;;;;;;;;13.50;10.25;;;;;;;;5038717;28;51104;-50
2022/03/14 13:58:26;;;;;;;;;13.50;10.50;;;;;;;;5051004;28;51280;-50
2022/03/14 14:01:10;;;;;;;;;17.50;12.25;;;;;;;;5044341;28;51157;-47
2022/03/14 14:03:55;;;;;;;;;12.75;10.75;;;;;;;;5048419;28;51421;-45
2022/03/14 14:06:47;;;;;;;;;15.50;13.50;;;;;;;;5058251;28;51129;-49
2022/03/14 14:09:40;;;;;;;;;13.50;9.25;;;;;;;;5050871;28;51552;-47
2022/03/14 14:12:30;;;;;;;;;15.50;12.25;;;;;;;;5040150;28;51122;-45
2022/03/14 14:15:14;;;;;;;;;15.75;13.75;;;;;;;;5051445;28;51212;-45
2022/03/14 14:17:59;;;;;;;;;17.50;13.25;;;;;;;;5037729;28;51490;-47
2022/03/14 14:20:44;;;;;;;;;17.00;13.50;;;;;;;;5045790;28;52004;-45
2022/03/14 14:23:33;;;;;;;;;11.50;9.75;;;;;;;;5049114;28;52196;-45
2022/03/14 14:26:28;;;;;;;;;20.50;15.50;;;;;;;;5054196;28;51215;-48
2022/03/14 14:29:32;;;;;;;;;13.00;12.75;;;;;;;;5044136;28;51209;-46
2022/03/14 14:32:18;;;;;;;;;17.00;13.00;;;;;;;;5046316;28;51107;-51
2022/03/14 14:35:02;;;;;;;;;18.25;11.75;;;;;;;;5049740;28;51208;-45
2022/03/14 14:37:47;;;;;;;;;10.00;10.00;;;;;;;;5041264;28;51157;-49
2022/03/14 14:40:31;;;;;;;;;16.25;13.25;;;;;;;;5052946;28;51172;-46
2022/03/14 14:43:17;;;;;;;;;14.75;12.50;;;;;;;;5048256;28;51520;-47
2022/03/14 14:46:05;;;;;;;;;19.50;14.00;;;;;;;;5038551;28;51667;-46
2022/03/14 14:48:51;;;;;;;;;19.00;13.75;;;;;;;;5056296;27;51181;-48
2022/03/14 14:51:36;;;;;;;;;16.00;12.75;;;;;;;;5051668;28;51127;-45
2022/03/14 14:54:20;;;;;;;;;18.25;15.75;;;;;;;;5052430;28;51019;-47
2022/03/14 14:57:05;;;;;;;;;19.25;14.25;;;;;;;;5049741;28;51323;-45
2022/03/14 14:59:50;;;;;;;;;12.75;10.00;;;;;;;;5048793;28;51238;-47
2022/03/14 15:02:34;;;;;;;;;17.75;12.50;;;;;;;;5047841;28;51281;-49
2022/03/14 15:05:19;;;;;;;;;17.50;14.75;;;;;;;;5053211;28;51161;-48
2022/03/14 15:08:04;;;;;;;;;17.75;16.75;;;;;;;;5053465;28;51193;-45
2022/03/14 15:10:48;;;;;;;;;12.75;12.75;;;;;;;;5042611;28;51468;-48
2022/03/14 15:13:34;;;;;;;;;17.75;14.25;;;;;;;;5041667;28;51279;-46
2022/03/14 15:16:18;;;;;;;;;20.25;17.00;;;;;;;;5050078;28;51155;-47
2022/03/14 15:19:03;;;;;;;;;21.75;18.00;;;;;;;;5050728;28;51278;-47
2022/03/14 15:21:49;;;;;;;;;20.25;14.25;;;;;;;;5048585;28;51300;-49
2022/03/14 15:24:33;;;;;;;;;15.75;14.25;;;;;;;;5061244;28;51358;-51
2022/03/14 15:27:17;;;;;;;;;18.00;14.75;;;;;;;;5044970;28;52446;-51
2022/03/14 15:30:12;;;;;;;;;23.75;16.00;;;;;;;;5054581;28;51110;-47
2022/03/14 15:32:58;;;;;;;;;22.25;16.50;;;;;;;;5052306;28;51138;-49
2022/03/14 15:35:42;;;;;;;;;18.50;14.50;;;;;;;;5058702;28;51529;-50
2022/03/14 15:38:28;;;;;;;;;21.25;13.50;;;;;;;;5053378;28;51078;-50
2022/03/14 15:41:13;;;;;;;;;18.50;16.25;;;;;;;;5051236;28;51200;-47
2022/03/14 15:43:57;;;;;;;;;22.25;16.25;;;;;;;;5054171;28;51571;-47
2022/03/14 15:46:41;;;;;;;;;20.00;17.00;;;;;;;;5053532;28;51203;-44
2022/03/14 15:49:26;;;;;;;;;17.75;16.00;;;;;;;;5054386;28;51128;-48
2022/03/14 15:52:10;;;;;;;;;18.25;14.75;;;;;;;;5049254;28;51453;-48
2022/03/14 15:54:55;;;;;;;;;18.75;17.50;;;;;;;;5047841;28;51479;-48
2022/03/14 15:57:39;;;;;;;;;28.00;26.00;;;;;;;;5037987;28;51133;-52
2022/03/14 16:00:24;;;;;;;;;23.25;17.25;;;;;;;;5038729;28;51226;-47
2022/03/14 16:03:09;;;;;;;;;35.50;27.50;;;;;;;;5041517;28;51161;-49
2022/03/14 16:05:54;;;;;;;;;32.00;29.00;;;;;;;;5053537;28;51343;-49
2022/03/14 16:08:38;;;;;;;;;40.75;30.75;;;;;;;;5039845;28;51572;-44
2022/03/14 16:11:23;;;;;;;;;35.00;27.50;;;;;;;;5047479;28;51236;-50
2022/03/14 16:14:08;;;;;;;;;26.75;21.75;;;;;;;;5054841;28;51582;-47
2022/03/14 16:16:52;;;;;;;;;31.75;28.00;;;;;;;;5039829;28;51011;-48
2022/03/14 16:19:38;;;;;;;;;72.00;60.75;;;;;;;;5045665;28;51132;-45
2022/03/14 16:22:22;;;;;;;;;99.25;91.25;;;;;;;;5042625;28;51075;-46
2022/03/14 16:25:06;;;;;;;;;240.00;220.75;;;;;;;;5044005;28;51094;-46
2022/03/14 16:27:53;;;;;;;;;204.75;191.00;;;;;;;;5046531;28;51068;-48
2022/03/14 16:30:38;;;;;;;;;260.75;243.00;;;;;;;;5052214;28;51148;-50
2022/03/14 16:33:23;;;;;;;;;200.75;191.25;;;;;;;;5044525;28;51363;-50
2022/03/14 16:36:07;;;;;;;;;145.50;140.00;;;;;;;;5052455;28;51586;-46
2022/03/14 16:38:51;;;;;;;;;89.75;82.00;;;;;;;;5052180;28;51524;-46
2022/03/14 16:41:36;;;;;;;;;58.00;46.25;;;;;;;;5051792;28;51494;-46